Time;durP1;ratioP1;P1;durP2;ratioP2;P2;SDS_P1;SDS_P2;PMS_P1;PMS_P2;Temp;Humidity;BMP_temperature;BMP_pressure;BME280_temperature;BME280_humidity;BME280_pressure;Samples;Min_cycle;Max_cycle;Signal;HPM_P1;HPM_P2
2022/04/11 00:01:39;;;;;;;2.10;1.63;;;21.70;41.20;;;;;;5040831;28;88641;-65
2022/04/11 00:04:09;;;;;;;3.17;1.70;;;21.70;40.60;;;;;;5040015;28;90742;-65
2022/04/11 00:06:37;;;;;;;1.53;1.30;;;21.70;40.60;;;;;;5039986;27;88867;-64
2022/04/11 00:09:04;;;;;;;2.67;1.90;;;21.70;40.60;;;;;;5039496;28;88772;-64
2022/04/11 00:11:32;;;;;;;2.73;1.83;;;21.70;40.60;;;;;;5040592;28;88551;-64
2022/04/11 00:14:01;;;;;;;2.73;1.67;;;21.70;41.10;;;;;;5041159;28;90381;-65
2022/04/11 00:16:30;;;;;;;2.60;1.47;;;21.60;40.40;;;;;;5040479;28;89437;-65
2022/04/11 00:18:58;;;;;;;2.83;1.20;;;21.60;40.40;;;;;;5040148;28;88783;-65
2022/04/11 00:21:28;;;;;;;3.20;1.50;;;21.70;40.50;;;;;;5040672;28;88374;-64
2022/04/11 00:23:56;;;;;;;1.37;1.10;;;21.60;40.30;;;;;;5040115;28;92566;-64
2022/04/11 00:26:23;;;;;;;1.40;1.30;;;21.60;40.30;;;;;;5040282;27;90074;-65
2022/04/11 00:28:53;;;;;;;3.07;1.40;;;21.60;40.30;;;;;;5038077;28;88501;-65
2022/04/11 00:31:21;;;;;;;2.40;1.57;;;21.60;40.30;;;;;;5040556;28;88501;-64
2022/04/11 00:33:49;;;;;;;2.33;1.20;;;21.60;40.20;;;;;;5040144;27;90626;-64
2022/04/11 00:36:17;;;;;;;1.23;1.13;;;21.60;40.90;;;;;;5040327;28;90000;-64
2022/04/11 00:38:46;;;;;;;2.47;1.33;;;21.60;40.20;;;;;;5040123;28;88904;-64
2022/04/11 00:41:14;;;;;;;2.27;1.30;;;21.60;40.10;;;;;;5040072;27;88740;-65
2022/04/11 00:43:42;;;;;;;1.40;1.00;;;21.60;40.10;;;;;;5039463;28;90727;-64
2022/04/11 00:46:10;;;;;;;2.40;1.30;;;21.60;40.10;;;;;;5039624;28;90126;-64
2022/04/11 00:48:40;;;;;;;2.03;0.87;;;21.60;40.00;;;;;;5039501;27;89699;-64
2022/04/11 00:51:09;;;;;;;3.40;1.30;;;21.60;40.00;;;;;;5040101;27;88655;-65
2022/04/11 00:53:38;;;;;;;1.27;1.00;;;21.50;39.90;;;;;;5039180;28;90730;-64
2022/04/11 00:56:08;;;;;;;1.80;1.00;;;21.50;39.80;;;;;;5039281;28;89617;-65
2022/04/11 00:58:36;;;;;;;1.17;1.10;;;21.50;39.80;;;;;;5039375;28;88999;-65
2022/04/11 01:01:04;;;;;;;1.20;1.10;;;21.50;39.80;;;;;;5038729;28;88572;-65
2022/04/11 01:03:32;;;;;;;3.57;1.43;;;21.60;39.90;;;;;;5039529;28;90584;-65
2022/04/11 01:06:01;;;;;;;3.33;1.23;;;21.50;39.80;;;;;;5039803;28;89770;-64
2022/04/11 01:08:29;;;;;;;1.17;1.10;;;21.50;39.80;;;;;;5052627;27;88454;-65
2022/04/11 01:10:57;;;;;;;1.63;1.00;;;21.50;39.80;;;;;;5059226;27;88576;-64
2022/04/11 01:13:27;;;;;;;2.20;1.37;;;21.50;39.80;;;;;;5039163;27;89824;-64
2022/04/11 01:15:55;;;;;;;1.00;0.90;;;21.50;39.80;;;;;;5038655;28;90146;-65
2022/04/11 01:18:23;;;;;;;2.23;0.80;;;21.50;39.80;;;;;;5039389;27;88212;-65
2022/04/11 01:20:51;;;;;;;1.73;1.23;;;21.50;39.70;;;;;;5039071;28;88525;-65
2022/04/11 01:23:21;;;;;;;1.10;0.87;;;21.50;39.70;;;;;;5036242;28;90600;-65
2022/04/11 01:25:50;;;;;;;3.07;0.87;;;21.40;39.60;;;;;;5018875;28;90013;-64
2022/04/11 01:28:19;;;;;;;1.53;1.10;;;21.50;39.70;;;;;;5018905;28;88880;-64
2022/04/11 01:30:47;;;;;;;1.50;0.83;;;21.50;39.70;;;;;;5018986;28;88373;-64
2022/04/11 01:33:17;;;;;;;3.27;1.10;;;21.40;39.60;;;;;;5028603;27;89729;-66
2022/04/11 01:35:45;;;;;;;1.43;1.30;;;21.40;39.60;;;;;;5038314;27;90332;-64
2022/04/11 01:38:13;;;;;;;1.03;0.90;;;21.40;39.50;;;;;;5038991;27;89249;-64
2022/04/11 01:40:49;;;;;;;2.10;1.37;;;21.40;39.60;;;;;;5041103;28;88540;-64
2022/04/11 01:43:17;;;;;;;1.40;1.13;;;21.40;39.50;;;;;;5041401;28;90842;-64
2022/04/11 01:45:45;;;;;;;0.60;0.60;;;21.40;39.50;;;;;;5042615;28;90110;-66
2022/04/11 01:48:13;;;;;;;2.00;1.00;;;21.40;39.50;;;;;;5042342;28;88547;-64
2022/04/11 01:50:41;;;;;;;2.03;0.97;;;21.40;39.40;;;;;;5042496;28;88432;-64
2022/04/11 01:53:09;;;;;;;2.70;1.00;;;21.40;39.40;;;;;;5042735;28;90633;-64
2022/04/11 01:55:38;;;;;;;1.13;1.00;;;21.40;39.40;;;;;;5042486;28;89485;-64
2022/04/11 01:58:08;;;;;;;1.90;0.80;;;21.40;39.50;;;;;;5042354;28;88301;-64
2022/04/11 02:00:36;;;;;;;1.10;1.00;;;21.30;39.30;;;;;;5033173;28;88491;-65
2022/04/11 02:03:04;;;;;;;1.90;1.47;;;21.30;39.30;;;;;;5021941;28;90649;-64
2022/04/11 02:05:32;;;;;;;1.40;1.10;;;21.30;39.30;;;;;;5035788;28;91053;-64
2022/04/11 02:08:01;;;;;;;2.90;0.70;;;21.30;39.20;;;;;;5042318;28;88846;-64
2022/04/11 02:10:29;;;;;;;1.70;0.73;;;21.40;39.30;;;;;;5041578;28;88443;-64
2022/04/11 02:12:58;;;;;;;1.20;0.90;;;21.30;39.20;;;;;;5041361;28;89908;-64
2022/04/11 02:15:27;;;;;;;1.13;1.03;;;21.30;39.20;;;;;;5041642;28;92652;-64
2022/04/11 02:17:55;;;;;;;3.07;1.07;;;21.30;39.20;;;;;;5055296;27;88368;-64
2022/04/11 02:20:23;;;;;;;2.17;1.40;;;21.30;39.20;;;;;;5045765;27;88394;-64
2022/04/11 02:22:52;;;;;;;0.97;0.97;;;21.30;39.20;;;;;;5027625;28;90831;-65
2022/04/11 02:25:21;;;;;;;1.27;0.70;;;21.30;39.20;;;;;;5035272;28;90085;-64
2022/04/11 02:27:49;;;;;;;1.13;0.93;;;21.30;39.20;;;;;;5021734;28;92076;-65
2022/04/11 02:30:18;;;;;;;1.07;0.97;;;21.30;39.20;;;;;;5021767;28;88473;-64
2022/04/11 02:32:47;;;;;;;1.77;1.30;;;21.30;39.20;;;;;;5021903;28;90344;-64
2022/04/11 02:35:16;;;;;;;0.83;0.70;;;21.30;39.20;;;;;;5021343;28;90473;-65
2022/04/11 02:37:44;;;;;;;1.07;0.90;;;21.20;39.10;;;;;;5024605;28;88968;-64
2022/04/11 02:40:13;;;;;;;1.47;0.93;;;21.30;39.20;;;;;;5021825;28;88524;-64
2022/04/11 02:42:41;;;;;;;2.80;0.90;;;21.30;39.20;;;;;;5021630;28;89454;-65
2022/04/11 02:45:10;;;;;;;1.40;0.87;;;21.30;39.20;;;;;;5029874;28;89203;-65
2022/04/11 02:47:38;;;;;;;0.73;0.73;;;21.30;39.20;;;;;;5042197;28;88790;-64
2022/04/11 02:50:08;;;;;;;1.40;0.90;;;21.20;39.10;;;;;;5041436;27;88454;-65
2022/04/11 02:52:36;;;;;;;0.50;0.50;;;21.20;39.20;;;;;;5041844;28;91167;-65
2022/04/11 02:55:06;;;;;;;0.70;0.70;;;21.20;39.10;;;;;;5042179;27;90127;-64
2022/04/11 02:57:36;;;;;;;2.43;0.90;;;21.20;39.10;;;;;;5041372;28;89154;-64
2022/04/11 03:00:06;;;;;;;1.80;1.00;;;21.20;39.10;;;;;;5041788;28;88729;-64
2022/04/11 03:02:34;;;;;;;1.10;0.90;;;21.20;39.10;;;;;;5040879;28;90715;-65
2022/04/11 03:05:02;;;;;;;2.60;1.10;;;21.20;39.10;;;;;;5040737;27;90032;-65
2022/04/11 03:07:32;;;;;;;1.27;1.03;;;21.20;39.10;;;;;;5041037;27;88427;-64
2022/04/11 03:10:00;;;;;;;2.43;1.20;;;21.20;39.10;;;;;;5040995;28;88685;-64
2022/04/11 03:12:28;;;;;;;1.40;0.63;;;21.10;39.00;;;;;;5041049;28;90647;-65
2022/04/11 03:14:56;;;;;;;1.73;1.23;;;21.10;39.00;;;;;;5041002;28;93116;-64
2022/04/11 03:17:24;;;;;;;2.50;0.80;;;21.10;39.00;;;;;;5041029;28;90227;-64
2022/04/11 03:19:52;;;;;;;0.93;0.87;;;21.10;39.00;;;;;;5040217;28;88638;-64
2022/04/11 03:22:20;;;;;;;1.80;1.10;;;21.10;39.00;;;;;;5040067;28;89319;-65
2022/04/11 03:24:49;;;;;;;1.57;1.07;;;21.10;39.00;;;;;;5040962;28;89992;-64
2022/04/11 03:27:17;;;;;;;1.47;1.00;;;21.10;39.00;;;;;;5040594;28;88970;-65
2022/04/11 03:29:45;;;;;;;2.13;1.27;;;21.10;39.00;;;;;;5040236;28;88490;-65
2022/04/11 03:32:13;;;;;;;0.70;0.70;;;21.10;39.00;;;;;;5040898;28;90671;-64
2022/04/11 03:34:41;;;;;;;3.23;0.97;;;21.10;38.90;;;;;;5040733;28;90086;-65
2022/04/11 03:37:09;;;;;;;2.43;0.90;;;21.10;39.00;;;;;;5024845;28;88484;-64
2022/04/11 03:39:37;;;;;;;1.37;0.87;;;21.10;38.90;;;;;;5020306;28;88488;-64
2022/04/11 03:42:07;;;;;;;0.70;0.70;;;21.00;39.50;;;;;;5020810;28;90286;-64
2022/04/11 03:44:35;;;;;;;1.90;1.00;;;21.00;38.80;;;;;;5020328;28;90071;-64
2022/04/11 03:47:04;;;;;;;1.77;1.10;;;21.00;38.80;;;;;;5020485;28;88896;-64
2022/04/11 03:49:32;;;;;;;1.10;1.00;;;21.10;38.90;;;;;;5038579;28;88453;-64
2022/04/11 03:52:00;;;;;;;2.37;0.90;;;21.00;38.80;;;;;;5039826;28;92267;-64
2022/04/11 03:54:28;;;;;;;1.10;0.90;;;21.10;38.90;;;;;;5040651;27;90222;-64
2022/04/11 03:56:56;;;;;;;1.20;0.80;;;21.00;38.80;;;;;;5041071;27;88836;-64
2022/04/11 03:59:25;;;;;;;1.23;0.77;;;21.00;38.80;;;;;;5040411;28;88553;-64
2022/04/11 04:01:53;;;;;;;1.17;1.00;;;21.00;38.80;;;;;;5039691;27;89501;-65
2022/04/11 04:04:21;;;;;;;1.00;0.90;;;21.00;38.80;;;;;;5039918;27;90039;-63
2022/04/11 04:06:49;;;;;;;1.03;0.97;;;21.00;38.80;;;;;;5039670;28;89855;-65
2022/04/11 04:09:17;;;;;;;1.47;0.80;;;21.00;38.80;;;;;;5039676;28;88485;-64
2022/04/11 04:11:45;;;;;;;1.20;1.10;;;21.00;38.90;;;;;;5036374;28;91064;-64
2022/04/11 04:14:13;;;;;;;1.00;0.80;;;21.00;38.80;;;;;;5039191;28;90669;-66
2022/04/11 04:16:43;;;;;;;1.50;0.80;;;21.00;38.80;;;;;;5039522;27;90207;-64
2022/04/11 04:19:12;;;;;;;1.90;1.47;;;21.00;38.80;;;;;;5039617;27;88561;-65
2022/04/11 04:21:40;;;;;;;2.70;1.37;;;20.90;38.80;;;;;;5040756;28;90375;-64
2022/04/11 04:24:09;;;;;;;2.10;1.10;;;20.90;38.80;;;;;;5038393;28;89430;-65
2022/04/11 04:26:37;;;;;;;1.97;1.57;;;20.90;38.80;;;;;;5019805;28;88317;-64
2022/04/11 04:29:05;;;;;;;1.50;1.23;;;20.90;38.80;;;;;;5019200;28;88576;-64
2022/04/11 04:31:34;;;;;;;4.60;2.00;;;20.90;38.80;;;;;;5020419;28;90949;-64
2022/04/11 04:34:03;;;;;;;1.70;1.50;;;20.90;38.80;;;;;;5038442;27;88972;-64
2022/04/11 04:36:31;;;;;;;2.63;1.80;;;20.90;38.80;;;;;;5036641;27;89376;-64
2022/04/11 04:39:00;;;;;;;3.73;1.83;;;20.90;38.80;;;;;;5039140;28;88572;-64
2022/04/11 04:41:28;;;;;;;4.33;2.00;;;20.90;38.80;;;;;;5039972;28;90264;-65
2022/04/11 04:43:56;;;;;;;2.10;1.60;;;20.90;38.80;;;;;;5039040;27;90089;-64
2022/04/11 04:46:24;;;;;;;3.57;2.33;;;20.80;38.70;;;;;;5045517;27;88925;-64
2022/04/11 04:48:52;;;;;;;2.70;2.37;;;20.60;38.60;;;;;;5046432;27;88426;-64
2022/04/11 04:51:22;;;;;;;3.73;1.87;;;20.80;38.70;;;;;;5039661;28;90527;-64
2022/04/11 04:53:50;;;;;;;4.07;1.87;;;20.80;38.70;;;;;;5039664;28;91784;-64
2022/04/11 04:56:18;;;;;;;6.63;2.40;;;20.80;38.70;;;;;;5039903;28;89858;-64
2022/04/11 04:58:46;;;;;;;5.70;2.53;;;20.80;38.70;;;;;;5041161;27;88426;-64
2022/04/11 05:01:14;;;;;;;3.93;2.20;;;20.80;38.70;;;;;;5035604;28;90018;-64
2022/04/11 05:03:42;;;;;;;2.50;2.10;;;20.80;38.70;;;;;;5038018;27;90008;-63
2022/04/11 05:06:10;;;;;;;3.07;2.20;;;20.80;38.70;;;;;;5035128;27;90226;-63
2022/04/11 05:08:40;;;;;;;4.23;2.10;;;20.80;38.80;;;;;;5034575;27;88546;-63
2022/04/11 05:11:08;;;;;;;4.43;2.23;;;20.80;38.90;;;;;;5037097;28;91013;-63
2022/04/11 05:13:36;;;;;;;2.33;1.73;;;20.80;39.00;;;;;;5040069;27;90004;-63
2022/04/11 05:16:04;;;;;;;2.90;1.80;;;20.80;39.10;;;;;;5046835;27;89996;-66
2022/04/11 05:18:32;;;;;;;3.17;2.30;;;20.80;39.20;;;;;;5042891;27;89131;-66
2022/04/11 05:21:00;;;;;;;2.93;1.97;;;20.80;39.30;;;;;;5042636;27;90636;-67
2022/04/11 05:23:28;;;;;;;2.17;1.90;;;20.80;39.40;;;;;;5054993;27;92811;-67
2022/04/11 05:25:57;;;;;;;2.83;2.27;;;20.80;39.50;;;;;;5039087;28;88960;-66
2022/04/11 05:28:26;;;;;;;2.77;1.77;;;20.90;39.70;;;;;;5040404;28;88598;-66
2022/04/11 05:30:54;;;;;;;2.30;1.80;;;20.90;39.80;;;;;;5040400;28;89574;-65
2022/04/11 05:33:22;;;;;;;2.93;1.87;;;20.90;39.80;;;;;;5042343;27;89569;-65
2022/04/11 05:35:50;;;;;;;3.67;1.80;;;20.90;39.90;;;;;;5042294;28;89032;-65
2022/04/11 05:38:19;;;;;;;3.43;2.03;;;21.00;40.00;;;;;;5042816;28;88632;-65
2022/04/11 05:40:47;;;;;;;4.93;1.53;;;21.00;40.10;;;;;;5042428;28;90662;-66
2022/04/11 05:43:21;;;;;;;2.27;1.37;;;21.00;40.10;;;;;;5041547;27;89998;-66
2022/04/11 05:45:49;;;;;;;2.40;1.93;;;21.10;40.20;;;;;;5040227;27;89819;-67
2022/04/11 05:48:17;;;;;;;1.90;1.63;;;21.10;40.30;;;;;;5041779;27;88678;-66
2022/04/11 05:50:45;;;;;;;2.73;1.60;;;21.10;40.30;;;;;;5041055;28;90767;-67
2022/04/11 05:53:13;;;;;;;3.80;2.33;;;21.10;40.30;;;;;;5042551;28;89717;-66
2022/04/11 05:55:41;;;;;;;4.17;2.10;;;21.10;40.40;;;;;;5042230;27;88497;-66
2022/04/11 05:58:09;;;;;;;2.57;1.80;;;21.10;40.40;;;;;;5042299;28;88538;-66
2022/04/11 06:00:39;;;;;;;6.33;1.70;;;21.20;40.50;;;;;;5041803;28;90673;-65
2022/04/11 06:03:07;;;;;;;2.57;1.73;;;21.20;40.50;;;;;;5042438;28;91433;-65
2022/04/11 06:05:37;;;;;;;2.93;1.70;;;21.20;40.50;;;;;;5042483;28;89084;-65
2022/04/11 06:08:05;;;;;;;1.70;1.60;;;21.20;40.50;;;;;;5042295;28;88625;-65
2022/04/11 06:10:33;;;;;;;2.60;1.40;;;21.20;40.50;;;;;;5041870;27;89550;-66
2022/04/11 06:13:01;;;;;;;2.37;1.57;;;21.20;40.50;;;;;;5041637;27;88826;-65
2022/04/11 06:15:29;;;;;;;4.80;1.40;;;21.20;40.50;;;;;;5042250;28;88857;-65
2022/04/11 06:17:59;;;;;;;3.63;2.23;;;21.20;40.60;;;;;;5042236;27;88597;-65
2022/04/11 06:20:27;;;;;;;2.73;1.60;;;21.30;40.70;;;;;;5042429;27;90564;-66
2022/04/11 06:22:55;;;;;;;1.50;1.23;;;21.20;40.50;;;;;;5041999;27;90334;-65
2022/04/11 06:25:23;;;;;;;3.87;1.90;;;21.30;40.60;;;;;;5041398;27;91897;-65
2022/04/11 06:27:51;;;;;;;1.63;1.33;;;21.30;40.60;;;;;;5041768;28;88458;-65
2022/04/11 06:30:19;;;;;;;1.60;1.43;;;21.30;40.60;;;;;;5040828;27;89635;-65
2022/04/11 06:32:47;;;;;;;3.17;1.93;;;21.30;40.60;;;;;;5041181;27;90106;-65
2022/04/11 06:35:16;;;;;;;1.87;1.40;;;21.30;40.60;;;;;;5041606;28;89831;-65
2022/04/11 06:37:44;;;;;;;2.27;1.63;;;21.30;40.60;;;;;;5041519;27;89127;-65
2022/04/11 06:40:13;;;;;;;2.23;1.67;;;21.30;40.60;;;;;;5045601;27;89491;-64
2022/04/11 06:42:40;;;;;;;199.63;82.23;;;21.30;40.70;;;;;;5040780;28;90027;-64
2022/04/11 06:45:09;;;;;;;119.73;54.43;;;21.40;41.00;;;;;;5041231;28;89046;-63
2022/04/11 06:47:37;;;;;;;153.17;62.03;;;21.50;41.20;;;;;;5040055;28;88565;-65
2022/04/11 06:50:05;;;;;;;127.80;54.83;;;21.60;41.30;;;;;;5039856;27;90644;-65
2022/04/11 06:52:35;;;;;;;111.27;46.47;;;21.60;41.40;;;;;;5040578;28;90071;-65
2022/04/11 06:55:03;;;;;;;139.77;51.97;;;21.60;41.40;;;;;;5040102;28;88528;-67
2022/04/11 06:57:31;;;;;;;100.50;41.73;;;21.60;41.40;;;;;;5039900;28;88476;-68
2022/04/11 07:00:00;;;;;;;92.80;39.80;;;21.60;41.50;;;;;;5039316;28;90247;-68
2022/04/11 07:02:28;;;;;;;73.47;33.93;;;21.60;41.50;;;;;;5039134;27;89033;-68
2022/04/11 07:04:56;;;;;;;77.60;32.30;;;21.60;41.60;;;;;;5039497;27;88573;-68
2022/04/11 07:07:24;;;;;;;79.90;31.60;;;21.60;41.60;;;;;;5038176;28;88352;-68
2022/04/11 07:09:53;;;;;;;60.60;26.43;;;21.60;41.70;;;;;;5040352;28;90696;-68
2022/04/11 07:12:21;;;;;;;55.07;24.53;;;21.50;42.20;;;;;;5039920;28;89831;-68
2022/04/11 07:14:51;;;;;;;49.63;21.57;;;21.50;41.60;;;;;;5039926;28;89126;-67
2022/04/11 07:17:19;;;;;;;45.70;20.80;;;21.50;41.60;;;;;;5039487;27;89257;-67
2022/04/11 07:19:47;;;;;;;40.27;21.13;;;21.50;41.60;;;;;;5039275;28;90564;-67
2022/04/11 07:22:20;;;;;;;42.10;19.07;;;21.50;41.50;;;;;;5039701;28;90034;-68
2022/04/11 07:24:48;;;;;;;43.57;18.73;;;21.40;41.50;;;;;;5041232;28;89534;-68
2022/04/11 07:27:18;;;;;;;38.37;18.97;;;21.50;41.50;;;;;;5040982;28;88629;-68
2022/04/11 07:29:46;;;;;;;34.93;17.07;;;21.40;41.40;;;;;;5039145;27;90608;-68
2022/04/11 07:32:14;;;;;;;31.03;14.57;;;21.40;41.30;;;;;;5040284;28;90061;-68
2022/04/11 07:34:42;;;;;;;37.57;15.73;;;21.40;41.30;;;;;;5040528;28;92123;-67
2022/04/11 07:37:11;;;;;;;26.90;14.27;;;21.40;42.00;;;;;;5039097;28;88550;-67
2022/04/11 07:39:39;;;;;;;23.63;11.40;;;21.40;41.30;;;;;;5039890;27;90767;-67
2022/04/11 07:42:08;;;;;;;25.37;11.93;;;21.40;41.30;;;;;;5040458;28;89678;-67
2022/04/11 07:44:37;;;;;;;30.63;11.47;;;21.40;41.30;;;;;;5040577;28;88250;-67
2022/04/11 07:47:05;;;;;;;23.10;10.97;;;21.40;41.30;;;;;;5039906;28;88368;-68
2022/04/11 07:49:33;;;;;;;18.80;10.23;;;21.40;41.30;;;;;;5038926;27;92526;-69
2022/04/11 07:52:01;;;;;;;18.30;9.47;;;21.40;41.30;;;;;;5039652;27;93832;-69
2022/04/11 07:54:29;;;;;;;20.03;9.73;;;21.50;41.50;;;;;;5040382;28;88918;-69
2022/04/11 07:56:57;;;;;;;17.27;8.70;;;21.40;41.40;;;;;;5037255;28;88578;-69
2022/04/11 07:59:25;;;;;;;16.77;8.30;;;21.40;41.40;;;;;;5039707;27;92785;-69
2022/04/11 08:01:54;;;;;;;15.70;7.83;;;21.40;41.50;;;;;;5040939;28;89670;-69
2022/04/11 08:04:23;;;;;;;16.87;7.50;;;21.40;41.40;;;;;;5037184;27;88457;-69
2022/04/11 08:06:51;;;;;;;17.00;7.00;;;21.40;41.50;;;;;;5039644;28;88498;-69
2022/04/11 08:09:19;;;;;;;13.23;6.17;;;21.40;41.50;;;;;;5037123;28;92807;-69
2022/04/11 08:11:47;;;;;;;9.27;5.20;;;21.40;41.50;;;;;;5039670;28;90486;-68
2022/04/11 08:14:16;;;;;;;11.73;5.17;;;21.40;41.50;;;;;;5039597;28;89759;-69
2022/04/11 08:16:44;;;;;;;13.80;6.00;;;21.40;41.50;;;;;;5037754;28;88442;-69
2022/04/11 08:19:13;;;;;;;7.03;4.27;;;21.40;41.50;;;;;;5039307;28;90553;-69
2022/04/11 08:21:41;;;;;;;8.67;4.87;;;21.40;41.50;;;;;;5034067;28;90773;-69
2022/04/11 08:24:09;;;;;;;7.03;4.37;;;21.40;41.50;;;;;;5039675;28;88620;-69
2022/04/11 08:26:37;;;;;;;8.13;4.30;;;21.50;41.50;;;;;;5039337;28;89001;-70
2022/04/11 08:29:05;;;;;;;7.33;3.70;;;21.40;41.40;;;;;;5039030;27;90830;-69
2022/04/11 08:31:33;;;;;;;7.17;4.07;;;21.40;41.40;;;;;;5040339;28;91444;-69
2022/04/11 08:34:01;;;;;;;7.30;3.73;;;21.40;41.40;;;;;;5037302;28;91967;-70
2022/04/11 08:36:31;;;;;;;9.80;4.27;;;21.40;41.40;;;;;;5040340;27;88479;-70
2022/04/11 08:38:59;;;;;;;6.67;3.57;;;21.40;41.40;;;;;;5041223;27;90471;-70
2022/04/11 08:41:29;;;;;;;10.00;4.30;;;21.40;41.40;;;;;;5041602;28;90123;-69
2022/04/11 08:43:57;;;;;;;11.83;4.80;;;21.40;41.40;;;;;;5040509;28;88851;-70
2022/04/11 08:46:25;;;;;;;7.63;3.90;;;21.30;41.20;;;;;;5041108;27;88450;-70
2022/04/11 08:48:53;;;;;;;8.53;3.30;;;21.30;41.20;;;;;;5039327;27;93628;-70
2022/04/11 08:51:21;;;;;;;6.87;3.87;;;21.30;41.20;;;;;;5039785;28;89931;-70
2022/04/11 08:53:51;;;;;;;6.53;3.40;;;21.30;41.20;;;;;;5040180;28;88952;-71
2022/04/11 08:56:19;;;;;;;6.77;3.53;;;21.30;41.20;;;;;;5040550;28;88467;-70
2022/04/11 08:58:47;;;;;;;5.07;2.80;;;21.30;41.20;;;;;;5039113;27;90563;-70
2022/04/11 09:01:16;;;;;;;6.23;3.20;;;21.30;41.20;;;;;;5039253;27;90873;-70
2022/04/11 09:03:48;;;;;;;7.67;2.90;;;21.40;41.20;;;;;;5039829;27;92260;-70
2022/04/11 09:06:17;;;;;;;6.23;3.27;;;21.30;41.20;;;;;;5040016;28;88459;-70
2022/04/11 09:08:51;;;;;;;6.20;3.20;;;21.30;41.10;;;;;;5039555;27;92470;-70
2022/04/11 09:11:30;;;;;;;7.70;2.97;;;21.30;41.10;;;;;;5028273;28;90183;-70
2022/04/11 09:13:58;;;;;;;7.17;3.20;;;21.30;41.10;;;;;;5020240;28;88449;-70
2022/04/11 09:16:27;;;;;;;5.63;2.43;;;21.30;41.10;;;;;;5019858;28;88536;-70
2022/04/11 09:18:55;;;;;;;4.37;2.43;;;21.30;41.00;;;;;;5037801;28;90546;-69
2022/04/11 09:21:24;;;;;;;5.30;2.70;;;21.30;41.00;;;;;;5039513;27;89019;-70
2022/04/11 09:24:13;;;;;;;6.70;2.53;;;21.30;41.00;;;;;;5039313;28;91597;-70
2022/04/11 09:26:41;;;;;;;5.07;2.60;;;21.30;41.00;;;;;;5038995;28;88437;-70
2022/04/11 09:29:10;;;;;;;3.50;2.67;;;21.30;41.00;;;;;;5035379;28;90554;-70
2022/04/11 09:31:38;;;;;;;4.97;2.50;;;21.30;40.90;;;;;;5038881;28;90128;-69
2022/04/11 09:34:18;;;;;;;3.90;2.27;;;21.30;41.00;;;;;;5039036;27;88425;-70
2022/04/11 09:36:50;;;;;;;5.77;2.20;;;21.30;40.90;;;;;;5039299;27;88451;-70
2022/04/11 09:39:30;;;;;;;2.43;1.87;;;21.30;40.90;;;;;;5038860;27;89713;-70
2022/04/11 09:42:03;;;;;;;3.97;2.23;;;21.30;40.90;;;;;;5038679;27;89908;-69
2022/04/11 09:44:32;;;;;;;1.77;1.60;;;21.40;40.80;;;;;;5038754;27;88863;-69
2022/04/11 09:47:01;;;;;;;2.93;1.70;;;21.40;40.80;;;;;;5038952;28;88471;-69
2022/04/11 09:49:29;;;;;;;4.60;1.70;;;21.40;40.80;;;;;;5039038;28;90491;-69
2022/04/11 09:52:05;;;;;;;3.23;1.30;;;21.40;40.70;;;;;;5038716;28;89656;-70
2022/04/11 09:54:35;;;;;;;2.33;1.47;;;21.40;40.70;;;;;;5038233;28;88865;-69
2022/04/11 09:57:04;;;;;;;3.87;1.83;;;21.40;40.60;;;;;;5038782;28;89408;-70
2022/04/11 09:59:32;;;;;;;1.93;1.50;;;21.40;40.60;;;;;;5038281;27;90733;-69
2022/04/11 10:02:22;;;;;;;1.50;1.30;;;21.40;40.60;;;;;;5022166;28;89966;-69
2022/04/11 10:04:50;;;;;;;1.87;1.40;;;21.40;40.50;;;;;;5021112;28;91815;-68
2022/04/11 10:07:18;;;;;;;1.73;1.30;;;21.40;40.50;;;;;;5035197;27;88489;-69
2022/04/11 10:09:47;;;;;;;1.30;1.20;;;21.50;40.60;;;;;;5042117;28;92442;-69
2022/04/11 10:12:16;;;;;;;6.53;1.53;;;21.40;40.50;;;;;;5042398;28;90079;-69
2022/04/11 10:14:43;;;;;;;2.43;1.47;;;21.50;40.60;;;;;;5042284;27;88912;-69
2022/04/11 10:17:12;;;;;;;2.87;1.23;;;21.50;41.20;;;;;;5042174;28;88471;-69
2022/04/11 10:19:42;;;;;;;2.63;1.33;;;21.50;40.60;;;;;;5042124;28;89580;-68
2022/04/11 10:22:14;;;;;;;1.50;1.20;;;21.50;40.60;;;;;;5041791;28;90063;-69
2022/04/11 10:24:46;;;;;;;1.33;1.07;;;21.50;40.60;;;;;;5041699;27;89247;-70
2022/04/11 10:27:23;;;;;;;1.70;1.10;;;21.50;40.70;;;;;;5056651;27;88384;-70
2022/04/11 10:29:52;;;;;;;1.30;1.20;;;21.50;40.60;;;;;;5057906;27;90888;-74
2022/04/11 10:32:21;;;;;;;3.00;1.10;;;21.50;40.60;;;;;;5041899;27;90869;-74
2022/04/11 10:34:53;;;;;;;1.60;1.00;;;21.50;40.70;;;;;;5041670;28;88778;-74
2022/04/11 10:37:23;;;;;;;1.47;0.83;;;21.50;40.70;;;;;;5042161;27;88707;-73
2022/04/11 10:39:52;;;;;;;0.83;0.80;;;21.50;40.70;;;;;;5040932;27;89558;-73
2022/04/11 10:42:22;;;;;;;4.00;1.40;;;21.50;40.70;;;;;;5041608;28;92831;-65
2022/04/11 10:44:53;;;;;;;4.10;1.53;;;21.50;40.70;;;;;;5041332;27;92428;-65
2022/04/11 10:47:34;;;;;;;40.67;18.17;;;21.50;40.60;;;;;;5041562;27;88366;-65
2022/04/11 10:50:24;;;;;;;255.63;89.83;;;21.50;40.50;;;;;;5040463;27;90682;-65
2022/04/11 10:53:07;;;;;;;350.77;126.37;;;21.50;40.30;;;;;;5040595;28;90088;-65
2022/04/11 10:55:35;;;;;;;244.27;87.93;;;21.50;40.10;;;;;;5039677;27;89103;-70
2022/04/11 10:58:05;;;;;;;158.90;60.07;;;21.50;39.90;;;;;;5037392;28;88582;-70
2022/04/11 11:00:33;;;;;;;106.57;42.60;;;21.60;40.10;;;;;;5040670;27;93929;-70
2022/04/11 11:03:13;;;;;;;52.77;23.20;;;21.60;39.80;;;;;;5040162;28;90074;-70
2022/04/11 11:05:43;;;;;;;45.03;17.27;;;21.50;39.30;;;;;;5040051;27;88249;-70
2022/04/11 11:08:33;;;;;;;40.07;18.67;;;21.50;39.00;;;;;;5040674;28;88534;-70
2022/04/11 11:11:03;;;;;;;23.10;10.73;;;21.40;38.90;;;;;;5040169;27;90812;-70
2022/04/11 11:13:39;;;;;;;27.87;12.17;;;21.40;38.70;;;;;;5040185;28;90088;-70
2022/04/11 11:16:37;;;;;;;24.90;10.10;;;21.40;38.60;;;;;;5040804;27;89340;-70
2022/04/11 11:19:20;;;;;;;13.37;6.03;;;21.40;38.60;;;;;;5040433;28;88629;-70
2022/04/11 11:21:59;;;;;;;10.87;4.23;;;21.30;38.20;;;;;;5040601;27;90145;-70
2022/04/11 11:24:28;;;;;;;5.87;2.97;;;21.20;37.80;;;;;;5041155;27;90265;-69
2022/04/11 11:26:57;;;;;;;2.90;2.33;;;21.10;37.40;;;;;;5044243;27;89557;-68
2022/04/11 11:29:28;;;;;;;6.07;3.57;;;21.00;37.00;;;;;;5039757;28;88382;-63
2022/04/11 11:31:58;;;;;;;13.85;5.13;;;20.80;36.70;;;;;;5039672;28;93927;-67
2022/04/11 11:34:27;;;;;;;7.63;4.47;;;20.60;35.70;;;;;;5039714;27;90098;-67
2022/04/11 11:36:59;;;;;;;6.77;3.03;;;20.90;36.10;;;;;;5040595;27;89791;-66
2022/04/11 11:39:47;;;;;;;5.50;2.60;;;21.00;36.10;;;;;;5040288;28;89352;-66
2022/04/11 11:42:15;;;;;;;4.57;2.47;;;21.10;36.20;;;;;;5040336;27;90559;-66
2022/04/11 11:44:46;;;;;;;3.20;2.37;;;21.10;36.10;;;;;;5040215;28;92696;-66
2022/04/11 11:47:14;;;;;;;3.10;2.30;;;21.00;36.60;;;;;;5040661;28;90077;-64
2022/04/11 11:49:44;;;;;;;4.63;2.20;;;21.00;35.80;;;;;;5040175;27;88485;-64
2022/04/11 11:52:13;;;;;;;5.37;1.87;;;20.90;35.70;;;;;;5040731;28;92888;-66
2022/04/11 11:54:42;;;;;;;3.03;1.60;;;20.90;35.60;;;;;;5040441;28;90066;-66
2022/04/11 11:57:13;;;;;;;2.83;2.23;;;20.90;35.50;;;;;;5040645;28;88898;-65
2022/04/11 11:59:50;;;;;;;4.20;2.60;;;20.90;35.50;;;;;;5039550;28;88566;-64
2022/04/11 12:05:05;;;;;;;2.43;2.10;;;20.80;35.20;;;;;;5039958;27;91586;-66
2022/04/11 12:07:33;;;;;;;2.97;2.07;;;20.80;35.10;;;;;;5039817;27;88769;-64
2022/04/11 12:10:01;;;;;;;2.40;1.23;;;20.80;35.10;;;;;;5038852;27;89500;-66
2022/04/11 12:12:29;;;;;;;3.00;1.60;;;20.80;35.00;;;;;;5038813;28;90858;-65
2022/04/11 12:15:07;;;;;;;8.47;2.20;;;20.80;34.90;;;;;;5039961;28;89852;-65
2022/04/11 12:17:36;;;;;;;3.17;1.60;;;20.80;34.90;;;;;;5040409;27;88240;-66
2022/04/11 12:20:08;;;;;;;2.67;1.77;;;20.80;34.80;;;;;;5040285;28;88474;-64
2022/04/11 12:22:37;;;;;;;2.73;1.40;;;20.80;34.80;;;;;;5039642;27;93729;-66
2022/04/11 12:25:21;;;;;;;1.70;1.47;;;20.80;34.70;;;;;;5039929;28;90200;-66
2022/04/11 12:27:50;;;;;;;1.77;1.47;;;20.80;34.70;;;;;;5039896;27;89419;-66
2022/04/11 12:30:19;;;;;;;2.57;1.40;;;20.80;34.50;;;;;;5040190;28;88543;-66
2022/04/11 12:32:47;;;;;;;2.43;1.57;;;20.80;34.40;;;;;;5039910;27;90786;-66
2022/04/11 12:35:21;;;;;;;2.47;1.23;;;20.80;34.40;;;;;;5039517;27;88785;-67
2022/04/11 12:37:50;;;;;;;2.67;1.17;;;20.80;34.30;;;;;;5039756;27;90883;-66
2022/04/11 12:40:18;;;;;;;2.53;1.30;;;20.80;34.30;;;;;;5039247;28;89141;-64
2022/04/11 12:43:04;;;;;;;2.00;1.50;;;20.90;34.30;;;;;;5038027;27;92731;-64
2022/04/11 12:45:34;;;;;;;1.83;1.30;;;20.90;34.30;;;;;;5034079;28;90087;-65
2022/04/11 12:48:03;;;;;;;3.43;1.30;;;20.90;34.20;;;;;;5038596;28;88801;-66
2022/04/11 12:50:32;;;;;;;2.83;1.60;;;20.90;34.20;;;;;;5037959;28;88921;-66
2022/04/11 12:53:00;;;;;;;1.83;1.40;;;20.90;34.20;;;;;;5038522;28;90661;-65
2022/04/11 12:55:29;;;;;;;1.70;1.60;;;20.90;34.10;;;;;;5039591;28;91885;-65
2022/04/11 12:58:02;;;;;;;2.23;1.80;;;20.80;34.00;;;;;;5039970;28;88799;-64